M I D A S
Marine Information and Data Acquisition System
Tripno 1245 of the Zeeleeuw from 2007-04-16 11:27:28 to 2007-04-16 14:26:46
Back to CruiseResearch ActivitiesStationsMapUnderway DataData graphs

EquipmentUnitsComment
TimeDGPSUTC
LatitudeDGPSDM.mWGS84
LongitudeDGPSDM.mWGS84
TemperatureSBE03/SBE38deg celciusITS90
ConductivitySBE21S/mITS90
SalinitySBE21 Practical Salinity Units
ChlorophylAChelsea fluorimeterg/lCalibrated in Aceton
Missing or incorrect values are displayed as -999
Sea surface data collected by the RV Zeeleeuw from 2007-04-16 08:22:18 to 2007-04-16 14:35:22
Time Latitude Longitude Temperature Conductivity Salinity ChlorophylA
2007-04-16 08:23:23 51°13.612 2°56.036 19.4077 0.092154 0.440466 -2.871232
2007-04-16 08:24:23 51°13.637 2°55.939 19.4698 0.092154 0.440524 -2.871232
2007-04-16 08:25:23 51°13.678 2°55.845 19.4738 0.092154 0.440554 -2.871232
2007-04-16 08:26:23 51°13.707 2°55.766 19.4507 0.092154 0.44059 -2.871232
2007-04-16 08:27:23 51°13.717 2°55.736 19.5607 0.092051 0.440125 -2.871232
2007-04-16 08:28:23 51°13.712 2°55.73 19.4435 0.092154 0.440663 -2.871232
2007-04-16 08:29:23 51°13.714 2°55.736 19.3724 0.092154 0.440692 -2.871232
2007-04-16 08:30:23 51°13.705 2°55.731 19.4373 0.092051 0.440227 -2.871232
2007-04-16 08:31:23 51°13.722 2°55.727 19.4412 0.092154 0.440795 -2.871232
2007-04-16 08:32:23 51°13.767 2°55.683 19.3827 0.092051 0.440329 -2.871232
2007-04-16 08:33:23 51°13.837 2°55.622 19.3864 0.092051 0.440381 -2.871232
2007-04-16 08:34:23 51°13.907 2°55.561 19.3907 0.092051 0.440417 -2.871232
2007-04-16 08:35:23 51°13.965 2°55.508 19.4205 0.091948 0.439966 -2.871232
2007-04-16 08:36:23 51°14 2°55.459 19.3895 0.092051 0.440505 -2.871232
2007-04-16 08:37:23 51°14.004 2°55.454 19.4632 0.091948 0.440032 -2.871232
2007-04-16 08:38:23 51°14.005 2°55.453 19.4458 0.091948 0.440061 -2.871232
2007-04-16 08:39:23 51°14.003 2°55.451 19.4524 0.092051 0.440607 -2.871232
2007-04-16 08:40:23 51°14.004 2°55.451 19.4207 0.092051 0.440644 -2.871232
2007-04-16 08:41:23 51°14.005 2°55.452 19.4299 0.091948 0.440156 -2.871232
2007-04-16 08:42:23 51°14.004 2°55.452 19.4559 0.092051 0.440702 -2.871232
2007-04-16 08:43:23 51°14.004 2°55.451 19.4434 0.092051 0.440746 -2.871232
2007-04-16 08:44:23 51°14.004 2°55.451 19.4453 0.091948 0.440259 -2.871232
2007-04-16 08:45:23 51°14.002 2°55.448 19.4451 0.091948 0.440288 -2.871232
2007-04-16 08:46:23 51°14.003 2°55.45 19.4433 0.092051 0.440834 -2.871232
2007-04-16 08:47:23 51°14.004 2°55.452 19.4592 0.091948 0.440361 -2.871232
2007-04-16 08:48:23 51°14.003 2°55.451 19.461 0.091845 0.43988 -2.871232
2007-04-16 08:49:23 51°14.003 2°55.45 19.4666 0.091948 0.44042 -2.871232
2007-04-16 08:50:23 51°14.003 2°55.451 19.4709 0.091948 0.440456 -2.871232
2007-04-16 08:51:23 51°14.003 2°55.451 19.5109 0.091948 0.440478 -2.871232
2007-04-16 08:52:23 51°14.003 2°55.451 19.4859 0.091948 0.440515 -2.871232
2007-04-16 08:53:23 51°14.003 2°55.451 19.5069 0.091948 0.440537 -2.871232
2007-04-16 08:54:23 51°14.004 2°55.451 19.498 0.091948 0.440573 -2.871232
2007-04-16 08:55:23 51°14.004 2°55.451 19.5085 0.091948 0.440603 -2.871232
2007-04-16 08:56:23 51°14.004 2°55.451 19.5263 0.091948 0.440632 -2.871232
2007-04-16 08:57:23 51°14.004 2°55.451 19.5312 0.091948 0.440669 -2.871232
2007-04-16 08:58:23 51°14.004 2°55.451 19.5493 0.091845 0.440173 -2.871232
2007-04-16 08:59:23 51°14.004 2°55.451 19.5482 0.091845 0.44021 -2.871232
2007-04-16 09:00:23 51°14.004 2°55.45 19.5532 0.091948 0.440742 -2.871232
2007-04-16 09:01:23 51°14.004 2°55.451 19.5657 0.091948 0.440771 -2.871232
2007-04-16 09:02:23 51°14.003 2°55.45 19.5727 0.091845 0.44029 -2.871232
2007-04-16 09:03:23 51°14.003 2°55.451 19.5812 0.091845 0.44032 -2.871232
2007-04-16 09:04:23 51°14.003 2°55.45 19.5731 0.091845 0.440349 -2.871232
2007-04-16 09:05:23 51°14.004 2°55.45 19.5897 0.091845 0.440364 -2.871232
2007-04-16 09:06:23 51°14.003 2°55.45 19.6086 0.091845 0.440393 -2.871232
2007-04-16 09:07:23 51°14 2°55.446 19.6205 0.091845 0.440415 -2.871232
2007-04-16 09:08:23 51°14.001 2°55.448 19.6119 0.091845 0.440437 -2.871232
2007-04-16 09:09:23 51°14.001 2°55.448 19.6127 0.091845 0.440459 -2.871232
2007-04-16 09:10:23 51°14.003 2°55.449 19.6379 0.091948 0.440991 -2.871232
2007-04-16 09:11:23 51°14.004 2°55.45 19.6605 0.091845 0.440503 -2.871232
2007-04-16 09:12:23 51°14.003 2°55.448 19.6659 0.091845 0.440518 -2.871232
2007-04-16 09:13:23 51°14.003 2°55.449 19.6772 0.091845 0.44054 -2.871232
2007-04-16 09:14:23 51°14.004 2°55.451 19.6508 0.091845 0.440554 -2.871232
2007-04-16 09:15:23 51°14.004 2°55.451 19.6833 0.091845 0.440576 -2.871232
2007-04-16 09:16:23 51°14.004 2°55.451 19.6865 0.091845 0.440591 -2.871232
2007-04-16 09:17:24 51°14.004 2°55.451 19.7003 0.091743 0.440095 -2.871232
2007-04-16 09:18:23 51°14.003 2°55.449 19.7031 0.091845 0.44062 -2.871232
2007-04-16 09:19:23 51°14.004 2°55.451 19.7128 0.091743 0.440132 -2.871232
2007-04-16 09:20:23 51°14.004 2°55.451 19.7222 0.091743 0.440154 -2.871232
2007-04-16 09:21:23 51°14.004 2°55.451 19.7468 0.091743 0.440168 -2.871232
2007-04-16 09:22:23 51°14.003 2°55.451 19.7053 0.091743 0.440183 -2.871232
2007-04-16 09:23:23 51°14.003 2°55.451 19.7401 0.091743 0.440198 -2.871232
2007-04-16 09:24:23 51°14.004 2°55.451 19.7682 0.091743 0.44022 -2.871232
2007-04-16 09:25:23 51°14.004 2°55.452 19.7643 0.091743 0.440234 -2.871232
2007-04-16 09:26:23 51°14.003 2°55.452 19.778 0.091743 0.440249 -2.871232
2007-04-16 09:27:23 51°14.004 2°55.452 19.8058 0.09164 0.43976 -2.871232
2007-04-16 09:28:23 51°14.004 2°55.452 19.7714 0.091845 0.440796 -2.871232
2007-04-16 09:29:23 51°14.004 2°55.452 19.799 0.091743 0.4403 -2.871232
2007-04-16 09:30:23 51°14.004 2°55.452 19.8044 0.091743 0.440315 -2.871232
2007-04-16 09:31:23 51°14.004 2°55.452 19.8197 0.091743 0.44033 -2.871232
2007-04-16 09:32:23 51°14.005 2°55.452 19.8275 0.091743 0.440344 -2.871232
2007-04-16 09:33:23 51°14.004 2°55.45 19.8288 0.091743 0.440366 -2.871232
2007-04-16 09:34:23 51°14.004 2°55.451 19.8386 0.09164 0.439863 -2.871232
2007-04-16 09:35:23 51°14.004 2°55.45 19.8525 0.091743 0.440396 -2.871232
2007-04-16 09:36:23 51°14.003 2°55.45 19.8611 0.09164 0.439892 -2.871232
2007-04-16 09:37:23 51°14.003 2°55.45 19.867 0.091743 0.440418 -2.871232
2007-04-16 09:38:23 51°14.005 2°55.452 19.8595 0.09164 0.439921 -2.871232
2007-04-16 09:39:23 51°14.003 2°55.451 19.8741 0.09164 0.439936 -2.871232
2007-04-16 09:40:23 51°14.003 2°55.45 19.8811 0.091743 0.440462 -2.871232
2007-04-16 09:41:23 51°14.003 2°55.451 19.8938 0.09164 0.439958 -2.871232
2007-04-16 09:42:23 51°14.003 2°55.45 19.8979 0.091743 0.440484 -2.871232
2007-04-16 09:43:23 51°14.003 2°55.45 19.9161 0.091743 0.440498 -2.871232
2007-04-16 09:44:23 51°14.005 2°55.452 19.9272 0.09164 0.439995 -2.871232
2007-04-16 09:45:23 51°14.005 2°55.452 19.9012 0.09164 0.440002 -2.871232
2007-04-16 09:46:23 51°14.004 2°55.451 19.9327 0.091743 0.440535 -2.871232
2007-04-16 09:47:23 51°14.003 2°55.45 19.943 0.09164 0.440031 -2.871232
2007-04-16 09:48:23 51°14.003 2°55.45 19.9451 0.09164 0.440039 -2.871232
2007-04-16 09:49:23 51°14.003 2°55.449 19.9622 0.091537 0.439535 -2.871232
2007-04-16 09:50:23 51°14.003 2°55.45 19.964 0.09164 0.440061 -2.871232
2007-04-16 09:51:23 51°14.003 2°55.449 19.9982 0.09164 0.440068 -2.871232
2007-04-16 09:52:23 51°14 2°55.447 20.004 0.091537 0.439564 -2.871232
2007-04-16 09:53:23 51°13.998 2°55.446 19.9966 0.09164 0.440083 -2.871232
2007-04-16 09:54:23 51°14.002 2°55.45 20.0181 0.091537 0.439586 -2.871232
2007-04-16 09:55:24 51°14.003 2°55.451 20.0246 0.09164 0.440105 -2.871232
2007-04-16 09:56:23 51°14.003 2°55.451 20.0175 0.091537 0.439601 -2.871232
2007-04-16 09:57:23 51°14.003 2°55.451 20.0436 0.09164 0.440119 -2.871232
2007-04-16 09:58:23 51°14.003 2°55.452 20.0549 0.091537 0.439616 -2.871232
2007-04-16 09:59:23 51°14.003 2°55.452 20.0486 0.091537 0.439623 -2.871232
2007-04-16 10:00:23 51°14.004 2°55.452 20.0544 0.091537 0.439623 -2.871232
2007-04-16 10:01:23 51°14.003 2°55.452 20.0786 0.091537 0.43963 -2.871232
2007-04-16 10:02:23 51°14.003 2°55.452 20.0655 0.091537 0.439638 -2.871232
2007-04-16 10:03:23 51°14.002 2°55.45 20.1053 0.091537 0.439638 -2.871232
2007-04-16 10:04:23 51°14.003 2°55.451 20.0772 0.091537 0.439645 -2.871232
2007-04-16 10:05:23 51°14.003 2°55.451 20.1024 0.091537 0.439645 -2.871232
2007-04-16 10:06:23 51°14.004 2°55.452 20.0862 0.091537 0.439652 -2.871232
2007-04-16 10:07:23 51°14.003 2°55.452 20.1099 0.091537 0.43966 -2.871232
2007-04-16 10:08:23 51°14.003 2°55.451 20.1203 0.09164 0.440171 -2.871232
2007-04-16 10:09:23 51°14.003 2°55.451 20.1145 0.09164 0.440178 -2.871232
2007-04-16 10:10:23 51°14.003 2°55.451 20.1188 0.091537 0.439667 -2.871232
2007-04-16 10:11:24 51°14.003 2°55.451 20.1411 0.091537 0.439667 -2.871232
2007-04-16 10:12:23 51°14.003 2°55.451 20.1413 0.09164 0.440186 -2.871232
2007-04-16 10:13:23 51°14.003 2°55.451 20.1624 0.091537 0.439682 -2.871232
2007-04-16 10:14:24 51°14.004 2°55.451 20.1534 0.091434 0.439178 -2.871232
2007-04-16 10:15:23 51°14.003 2°55.45 20.1711 0.09164 0.440193 -2.871232
2007-04-16 10:16:23 51°14.003 2°55.45 20.1766 0.091537 0.439689 -2.871232
2007-04-16 10:17:23 51°14.003 2°55.45 20.1833 0.091537 0.439696 -2.871232
2007-04-16 10:18:23 51°14.003 2°55.451 20.1851 0.091537 0.439696 -2.871232
2007-04-16 10:19:24 51°14.003 2°55.45 20.1886 0.091537 0.439696 -2.871232
2007-04-16 10:20:23 51°14.003 2°55.45 20.2101 0.09164 0.440208 -2.871232
2007-04-16 10:21:23 51°14.003 2°55.451 20.2294 0.091537 0.439696 -2.871232
2007-04-16 10:22:24 51°14.003 2°55.451 20.2272 0.091537 0.439696 -2.871232
2007-04-16 10:23:23 51°14.003 2°55.451 20.2466 0.091537 0.439696 -2.871232
2007-04-16 10:24:23 51°14.003 2°55.451 20.2582 0.091537 0.439696 -2.871232
2007-04-16 10:25:23 51°14.003 2°55.451 20.2609 0.091537 0.439696 -2.871232
2007-04-16 10:26:23 51°14.003 2°55.451 20.2681 0.091537 0.439696 -2.871232
2007-04-16 10:27:24 51°14.003 2°55.451 20.2777 0.091537 0.439689 -2.871232
2007-04-16 10:28:23 51°14.004 2°55.451 20.2775 0.091434 0.439178 -2.871232
2007-04-16 10:29:23 51°14.004 2°55.452 20.3102 0.091537 0.439682 -2.871232
2007-04-16 10:30:24 51°14.004 2°55.451 20.3093 0.091537 0.439682 -2.871232
2007-04-16 10:31:23 51°14.003 2°55.451 20.3065 0.091537 0.439667 -2.871232
2007-04-16 10:32:24 51°14.003 2°55.451 20.3207 0.091537 0.439667 -2.871232
2007-04-16 10:33:23 51°14.003 2°55.451 20.295 0.09164 0.440171 -2.871232
2007-04-16 10:34:23 51°14.003 2°55.451 20.3228 0.09164 0.440171 -2.871232
2007-04-16 10:35:24 51°14.004 2°55.452 20.3573 0.091537 0.43966 -2.871232
2007-04-16 10:36:23 51°14.004 2°55.451 20.3404 0.091537 0.439652 -2.871232
2007-04-16 10:37:23 51°14.004 2°55.451 20.3942 0.091537 0.439652 -2.871232
2007-04-16 10:38:24 51°14.004 2°55.452 20.3731 0.091537 0.439645 -2.871232
2007-04-16 10:39:23 51°14.004 2°55.451 20.4037 0.091537 0.439638 -2.871232
2007-04-16 10:40:24 51°14.004 2°55.451 20.4175 0.091434 0.439126 -2.871232
2007-04-16 10:41:23 51°14.004 2°55.451 20.3955 0.091537 0.43963 -2.871232
2007-04-16 10:42:23 51°14.004 2°55.451 17.9593 0.1679 0.828115 -2.871232
2007-04-16 10:43:24 51°14.004 2°55.451 14.0807 1.099015 6.298306 -2.871232
2007-04-16 10:44:23 51°14.004 2°55.451 13.688 2.902996 22.099427 -2.871232
2007-04-16 10:45:24 51°14.004 2°55.451 13.6372 2.863182 21.930668 -2.871232
2007-04-16 10:46:24 51°14.004 2°55.452 13.5662 2.862873 21.989901 -2.871232
2007-04-16 10:47:23 51°14.003 2°55.452 13.4157 2.892969 22.30179 -2.871232
2007-04-16 10:48:24 51°14.003 2°55.451 13.0931 3.090239 24.173351 -2.871232
2007-04-16 10:49:23 51°14.003 2°55.451 13.031 3.200964 25.261639 -2.871232
2007-04-16 10:50:23 51°14.003 2°55.452 12.964 3.235015 25.611985 -2.871232
2007-04-16 10:51:24 51°14.003 2°55.452 12.9478 3.240812 25.687966 -2.871232
2007-04-16 10:52:23 51°14.003 2°55.452 12.9176 3.249921 25.796801 -2.871232
2007-04-16 10:53:24 51°14.003 2°55.451 12.9013 3.2493 25.808308 -2.871232
2007-04-16 10:54:23 51°14.003 2°55.451 12.908 3.248679 25.806491 -2.871232
2007-04-16 10:55:24 51°14.004 2°55.451 12.903 3.235224 25.691993 -2.871232
2007-04-16 10:56:23 51°14.003 2°55.452 12.9106 3.238432 25.726804 -2.871232
2007-04-16 10:57:24 51°14.003 2°55.452 12.8896 3.221769 25.582944 -2.871232
2007-04-16 10:58:23 51°14.004 2°55.452 12.8916 3.239881 25.748602 -2.871232
2007-04-16 10:59:23 51°14.005 2°55.45 12.8888 3.254475 25.88171 -2.871232
2007-04-16 11:00:24 51°14.006 2°55.449 12.8881 3.254682 25.882313 -2.871232
2007-04-16 11:01:23 51°14.007 2°55.448 12.8723 3.258823 25.925419 -2.871232
2007-04-16 11:02:24 51°14.008 2°55.447 12.8391 3.27673 26.102005 -2.871232
2007-04-16 11:03:23 51°14.01 2°55.445 12.8208 3.293913 26.271971 -2.871232
2007-04-16 11:04:23 51°14.011 2°55.443 12.8015 3.305196 26.385826 -2.871232
2007-04-16 11:05:24 51°14.012 2°55.441 12.7926 3.310683 26.443006 -2.871232
2007-04-16 11:06:23 51°14.02 2°55.441 12.7899 3.315549 26.494745 -2.871232
2007-04-16 11:07:24 51°14.016 2°55.442 12.7859 3.318344 26.521958 -2.871232
2007-04-16 11:08:23 51°14.007 2°55.461 12.7775 3.327246 26.605717 -2.871232
2007-04-16 11:09:24 51°14.007 2°55.455 12.8083 3.329938 26.629532 -2.871232
2007-04-16 11:10:24 51°14.005 2°55.454 12.7916 3.328799 26.607527 -2.871232
2007-04-16 11:11:23 51°14.004 2°55.453 12.785 3.333768 26.658395 -2.871232
2007-04-16 11:12:24 51°14.004 2°55.452 12.7868 3.332733 26.652379 -2.871232
2007-04-16 11:13:23 51°14.003 2°55.452 12.787 3.329213 26.625004 -2.871232
2007-04-16 11:14:24 51°14.003 2°55.452 12.8176 3.323209 26.568746 -2.871232
2007-04-16 11:15:24 51°14.003 2°55.452 12.8387 3.286564 26.214558 -2.871232
2007-04-16 11:16:23 51°14.003 2°55.452 12.8406 3.288323 26.22761 -2.871232
2007-04-16 11:17:24 51°14.004 2°55.452 12.8314 3.283769 26.186204 -2.871232
2007-04-16 11:18:24 51°14.004 2°55.452 12.8255 3.291325 26.259041 -2.871232
2007-04-16 11:19:23 51°14.004 2°55.452 12.8935 3.264309 26.001802 -2.871232
2007-04-16 11:20:24 51°14.004 2°55.452 12.8813 3.245574 25.814998 -2.871232
2007-04-16 11:21:23 51°14.004 2°55.452 12.8718 3.254372 25.899676 -2.871232
2007-04-16 11:22:24 51°14.004 2°55.452 12.8634 3.2611 25.964376 -2.871232
2007-04-16 11:23:24 51°14.004 2°55.452 12.8529 3.266793 26.020006 -2.871232
2007-04-16 11:24:23 51°14.004 2°55.451 12.8468 3.273004 26.080233 -2.871232
2007-04-16 11:25:24 51°14.004 2°55.451 12.8375 3.278076 26.130464 -2.871232
2007-04-16 11:26:23 51°14.004 2°55.451 12.8502 3.285425 26.20328 -2.871232
2007-04-16 11:27:24 51°14.004 2°55.452 12.8485 3.278697 26.135939 -2.871232
2007-04-16 11:28:24 51°14.004 2°55.452 12.842 3.273314 26.088497 -2.871232
2007-04-16 11:29:23 51°14.004 2°55.453 12.8664 3.263688 25.998169 -2.871232
2007-04-16 11:30:24 51°14.003 2°55.452 12.8676 3.257167 25.932808 -2.871232
2007-04-16 11:31:24 51°14.003 2°55.452 12.8672 3.259755 25.955586 -2.871232
2007-04-16 11:32:23 51°14.003 2°55.452 12.8676 3.260272 25.960142 -2.871232
2007-04-16 11:33:24 51°14.003 2°55.452 12.8645 3.26079 25.964698 -2.871232
2007-04-16 11:34:24 51°14.004 2°55.452 12.866 3.261618 25.973822 -2.871232
2007-04-16 11:35:24 51°14.004 2°55.452 12.8661 3.261618 25.97321 -2.871232
2007-04-16 11:36:24 51°14.004 2°55.451 12.8587 3.26317 25.988104 -2.871232
2007-04-16 11:37:23 51°14.004 2°55.452 12.8501 3.266897 26.027044 -2.871232
2007-04-16 11:38:24 51°14.003 2°55.451 12.8545 3.27052 26.061414 -2.871232
2007-04-16 11:39:24 51°14.003 2°55.453 12.8493 3.27259 26.076585 -2.871232
2007-04-16 11:40:24 51°14.004 2°55.455 12.8344 3.284494 26.193212 -2.871232
2007-04-16 11:41:24 51°14.043 2°55.447 12.8351 3.300745 26.349628 -2.871232
2007-04-16 11:42:23 51°14.147 2°55.411 12.909 3.281802 26.155922 -2.871232
2007-04-16 11:43:24 51°14.253 2°55.289 13.0753 3.224356 25.599035 -2.871232
2007-04-16 11:44:24 51°14.346 2°55.098 12.9628 3.197963 25.251985 -2.871232
2007-04-16 11:45:23 51°14.443 2°54.865 12.5744 3.359338 26.827186 -2.871232
2007-04-16 11:46:24 51°14.507 2°54.611 12.226 3.502858 28.482856 -2.871232
2007-04-16 11:47:22 51°14.55 2°54.363 12.1932 3.527405 28.827634 -2.871232
2007-04-16 11:48:21 51°14.588 2°54.107 12.0937 3.535277 28.93722 -2.871232
2007-04-16 11:49:20 51°14.624 2°53.85 12.0019 3.538075 29.053457 -2.871232
2007-04-16 11:50:20 51°14.606 2°53.597 11.9333 3.548226 29.188912 -2.871232
2007-04-16 11:51:19 51°14.6 2°53.34 11.8249 3.555167 29.34092 -2.871232
2007-04-16 11:52:19 51°14.592 2°53.074 11.7616 3.551025 29.384936 -2.871232
2007-04-16 11:53:19 51°14.584 2°52.807 11.7317 3.549679 29.411919 -2.871232
2007-04-16 11:54:19 51°14.575 2°52.539 11.7401 3.550197 29.43604 -2.871232
2007-04-16 11:55:20 51°14.535 2°52.353 11.8933 3.550611 29.406881 -2.871232
2007-04-16 11:56:19 51°14.485 2°52.32 11.9406 3.554752 29.325748 -2.871232
2007-04-16 11:57:19 51°14.449 2°52.307 11.9136 3.55672 29.33381 -2.871232
2007-04-16 11:58:19 51°14.446 2°52.25 11.835 3.56076 29.388586 -2.871232
2007-04-16 11:59:19 51°14.466 2°52.169 11.8707 3.562521 29.456858 -2.871232
2007-04-16 12:00:19 51°14.472 2°52.084 11.9013 3.558792 29.392655 -2.871232
2007-04-16 12:01:19 51°14.468 2°52.002 11.8962 3.554027 29.336178 -2.871232
2007-04-16 12:02:20 51°14.463 2°51.92 11.8831 3.550817 29.312458 -2.871232
2007-04-16 12:03:19 51°14.448 2°51.846 11.872 3.54916 29.307232 -2.871232
2007-04-16 12:04:20 51°14.41 2°51.789 11.8769 3.549056 29.306283 -2.871232
2007-04-16 12:05:19 51°14.361 2°51.737 11.8541 3.551024 29.33001 -2.871232
2007-04-16 12:06:19 51°14.314 2°51.683 11.8313 3.555167 29.389386 -2.871232
2007-04-16 12:07:19 51°14.276 2°51.627 11.8303 3.558171 29.432673 -2.871232
2007-04-16 12:08:20 51°14.243 2°51.565 11.83 3.561693 29.458558 -2.871232
2007-04-16 12:09:20 51°14.202 2°51.513 11.7928 3.565214 29.500922 -2.871232
2007-04-16 12:10:20 51°14.174 2°51.446 11.6853 3.569047 29.574949 -2.871232
2007-04-16 12:11:19 51°14.143 2°51.381 11.6102 3.56967 29.674595 -2.871232
2007-04-16 12:12:19 51°14.106 2°51.321 11.5875 3.569464 29.716243 -2.871232
2007-04-16 12:13:19 51°14.078 2°51.249 11.5559 3.572157 29.763707 -2.871232
2007-04-16 12:14:19 51°14.056 2°51.171 11.5434 3.573608 29.799742 -2.871232
2007-04-16 12:15:20 51°14.024 2°51.102 11.5322 3.574644 29.821755 -2.871232
2007-04-16 12:16:19 51°13.999 2°51.03 11.5335 3.57599 29.837152 -2.871232
2007-04-16 12:17:19 51°13.976 2°50.953 11.5251 3.577026 29.846014 -2.871232
2007-04-16 12:18:20 51°13.954 2°50.874 11.5124 3.57713 29.859421 -2.871232
2007-04-16 12:19:19 51°13.934 2°50.799 11.5117 3.578166 29.872684 -2.871232
2007-04-16 12:20:20 51°13.903 2°50.73 11.5072 3.579616 29.889058 -2.871232
2007-04-16 12:21:20 51°13.879 2°50.656 11.4976 3.580134 29.90193 -2.871232
2007-04-16 12:22:20 51°13.864 2°50.574 11.4793 3.580548 29.911645 -2.871232
2007-04-16 12:23:19 51°13.841 2°50.498 11.4651 3.579927 29.922043 -2.871232
2007-04-16 12:24:19 51°13.824 2°50.415 11.4601 3.579409 29.929001 -2.871232
2007-04-16 12:25:20 51°13.804 2°50.332 11.4551 3.579824 29.936526 -2.871232
2007-04-16 12:26:19 51°13.779 2°50.256 11.4511 3.579824 29.937261 -2.871232
2007-04-16 12:27:20 51°13.755 2°50.175 11.4488 3.579617 29.941962 -2.871232
2007-04-16 12:28:19 51°13.751 2°50.087 11.4709 3.580342 29.944278 -2.871232
2007-04-16 12:29:20 51°13.759 2°49.997 11.4745 3.582102 29.945906 -2.871232
2007-04-16 12:30:19 51°13.781 2°49.918 11.4727 3.582413 29.949526 -2.871232
2007-04-16 12:31:19 51°13.824 2°49.86 11.485 3.582309 29.948565 -2.871232
2007-04-16 12:32:19 51°13.875 2°49.837 11.4953 3.581895 29.932218 -2.871232
2007-04-16 12:33:19 51°13.914 2°49.833 11.5167 3.581273 29.919104 -2.871232
2007-04-16 12:34:20 51°13.944 2°49.84 11.5976 3.573608 29.798281 -2.871232
2007-04-16 12:35:19 51°13.966 2°49.852 11.6052 3.573089 29.762854 -2.871232
2007-04-16 12:36:20 51°14.029 2°49.913 11.8696 3.571432 29.733702 -2.871232
2007-04-16 12:37:19 51°14 2°50.067 11.6711 3.538906 29.247372 -2.871232
2007-04-16 12:38:20 51°13.89 2°50.253 11.5832 3.57226 29.721725 -2.871232
2007-04-16 12:39:19 51°13.854 2°50.387 11.5435 3.578787 29.852809 -2.871232
2007-04-16 12:40:20 51°13.863 2°50.435 11.5683 3.578476 29.849199 -2.871232
2007-04-16 12:41:23 51°13.868 2°50.441 11.5804 3.583862 29.885895 -2.871232
2007-04-16 12:42:22 51°13.874 2°50.448 11.587 3.585001 29.886924 -2.871232
2007-04-16 12:43:21 51°13.881 2°50.459 11.5923 3.585623 29.88682 -2.871232
2007-04-16 12:44:19 51°13.888 2°50.472 11.6057 3.586555 29.88886 -2.871232
2007-04-16 12:45:20 51°13.888 2°50.512 11.6202 3.587694 29.889157 -2.871232
2007-04-16 12:46:19 51°13.829 2°50.525 11.7471 3.588523 29.89097 -2.871232
2007-04-16 12:47:20 51°13.793 2°50.376 11.6246 3.586969 29.857607 -2.871232
2007-04-16 12:48:19 51°13.733 2°50.143 11.6147 3.582618 29.837106 -2.871232
2007-04-16 12:49:19 51°13.655 2°49.85 11.6337 3.581686 29.824838 -2.871232
2007-04-16 12:50:19 51°13.577 2°49.55 11.5884 3.581479 29.818546 -2.871232
2007-04-16 12:51:19 51°13.497 2°49.249 11.536 3.584794 29.893793 -2.871232
2007-04-16 12:52:20 51°13.416 2°48.941 11.5007 3.583138 29.923174 -2.871232
2007-04-16 12:53:19 51°13.337 2°48.643 11.4938 3.580859 29.913058 -2.871232
2007-04-16 12:54:20 51°13.25 2°48.34 11.5154 3.582309 29.933856 -2.871232
2007-04-16 12:55:19 51°13.159 2°48.052 11.5064 3.583863 29.946064 -2.871232
2007-04-16 12:56:19 51°13.068 2°47.757 11.4938 3.587592 29.976244 -2.871232
2007-04-16 12:57:20 51°12.975 2°47.457 11.5192 3.595775 30.047744 -2.871232
2007-04-16 12:58:20 51°12.884 2°47.162 11.4873 3.601368 30.099652 -2.871232
2007-04-16 12:59:20 51°12.791 2°46.867 11.471 3.601265 30.123094 -2.871232
2007-04-16 13:00:20 51°12.7 2°46.573 11.4727 3.599815 30.119245 -2.871232
2007-04-16 13:01:20 51°12.609 2°46.277 11.4748 3.600644 30.126204 -2.871232
2007-04-16 13:02:19 51°12.519 2°45.987 11.4499 3.60168 30.143978 -2.871232
2007-04-16 13:03:20 51°12.415 2°45.743 11.433 3.600644 30.141761 -2.871232
2007-04-16 13:04:19 51°12.327 2°45.699 11.4393 3.605927 30.204247 -2.871232
2007-04-16 13:05:20 51°12.288 2°45.645 11.4252 3.600333 30.144062 -2.871232
2007-04-16 13:06:20 51°12.27 2°45.558 11.4178 3.599712 30.152374 -2.871232
2007-04-16 13:07:20 51°12.256 2°45.477 11.4055 3.598676 30.155354 -2.871232
2007-04-16 13:08:19 51°12.245 2°45.401 11.3959 3.59992 30.175836 -2.871232
2007-04-16 13:09:20 51°12.225 2°45.314 11.394 3.600334 30.18341 -2.871232
2007-04-16 13:10:20 51°12.209 2°45.223 11.3983 3.592358 30.109168 -2.871232
2007-04-16 13:11:19 51°12.197 2°45.132 11.3899 3.601163 30.197819 -2.871232
2007-04-16 13:12:20 51°12.183 2°45.04 11.3825 3.602095 30.210222 -2.871232
2007-04-16 13:13:20 51°12.17 2°44.95 11.3707 3.602924 30.220919 -2.871232
2007-04-16 13:14:20 51°12.157 2°44.859 11.3661 3.604063 30.247186 -2.871232
2007-04-16 13:15:20 51°12.144 2°44.769 11.3706 3.606342 30.265442 -2.871232
2007-04-16 13:16:19 51°12.13 2°44.681 11.3554 3.60686 30.273255 -2.871232
2007-04-16 13:17:20 51°12.117 2°44.591 11.3549 3.608 30.288357 -2.871232
2007-04-16 13:18:20 51°12.104 2°44.502 11.3626 3.609036 30.295027 -2.871232
2007-04-16 13:19:20 51°12.09 2°44.412 11.3624 3.610175 30.307892 -2.871232
2007-04-16 13:20:20 51°12.075 2°44.324 11.3551 3.611315 30.316274 -2.871232
2007-04-16 13:21:20 51°12.06 2°44.235 11.3602 3.613179 30.3374 -2.871232
2007-04-16 13:22:20 51°12.043 2°44.148 11.3617 3.615147 30.352012 -2.871232
2007-04-16 13:23:19 51°12.025 2°44.062 11.3532 3.617012 30.372397 -2.871232
2007-04-16 13:24:20 51°12.006 2°43.974 11.3491 3.618255 30.38474 -2.871232
2007-04-16 13:25:20 51°11.988 2°43.886 11.3532 3.619498 30.399335 -2.871232
2007-04-16 13:26:20 51°11.97 2°43.799 11.353 3.621156 30.415548 -2.871232
2007-04-16 13:27:19 51°11.952 2°43.714 11.3495 3.622192 30.426714 -2.871232
2007-04-16 13:28:20 51°11.932 2°43.626 11.3434 3.622917 30.43348 -2.871232
2007-04-16 13:29:19 51°11.913 2°43.541 11.3436 3.623021 30.439703 -2.871232
2007-04-16 13:30:20 51°11.891 2°43.456 11.3423 3.623746 30.447973 -2.871232
2007-04-16 13:31:20 51°11.853 2°43.389 11.3344 3.624367 30.458283 -2.871232
2007-04-16 13:32:20 51°11.812 2°43.325 11.3402 3.625196 30.465268 -2.871232
2007-04-16 13:33:20 51°11.775 2°43.253 11.3486 3.626128 30.46495 -2.871232
2007-04-16 13:34:20 51°11.744 2°43.176 11.3472 3.62561 30.460116 -2.871232
2007-04-16 13:35:20 51°11.724 2°43.095 11.3561 3.625714 30.462586 -2.871232
2007-04-16 13:36:19 51°11.723 2°43.016 11.3669 3.627889 30.473869 -2.871232
2007-04-16 13:37:20 51°11.743 2°42.971 11.3629 3.629443 30.489873 -2.871232
2007-04-16 13:38:20 51°11.757 2°42.951 11.3661 3.631308 30.505018 -2.871232
2007-04-16 13:39:20 51°11.804 2°42.932 11.3593 3.633172 30.510381 -2.871232
2007-04-16 13:40:20 51°11.866 2°43.065 11.3469 3.63224 30.518235 -2.871232
2007-04-16 13:41:20 51°11.97 2°43.358 11.3329 3.630894 30.514697 -2.871232
2007-04-16 13:42:20 51°12.077 2°43.659 11.3329 3.628511 30.499979 -2.871232
2007-04-16 13:43:20 51°12.117 2°43.834 11.3453 3.625403 30.468706 -2.871232
2007-04-16 13:44:20 51°12.108 2°43.914 11.3517 3.623228 30.44389 -2.871232
2007-04-16 13:45:20 51°12.107 2°43.936 11.3592 3.621881 30.423814 -2.871232
2007-04-16 13:46:20 51°12.103 2°43.956 11.3705 3.621259 30.414264 -2.871232
2007-04-16 13:47:20 51°12.098 2°43.975 11.3784 3.621363 30.402483 -2.871232
2007-04-16 13:48:20 51°12.09 2°43.993 11.3875 3.620327 30.381588 -2.871232
2007-04-16 13:49:20 51°12.082 2°44.008 11.3991 3.620948 30.384387 -2.871232
2007-04-16 13:50:19 51°12.072 2°44.019 11.3979 3.620741 30.37572 -2.871232
2007-04-16 13:51:20 51°12.04 2°44.062 11.4058 3.620741 30.371231 -2.871232
2007-04-16 13:52:19 51°12.059 2°44.186 11.402 3.620948 30.376902 -2.871232
2007-04-16 13:53:20 51°12.156 2°44.459 11.412 3.619601 30.357623 -2.871232
2007-04-16 13:54:19 51°12.264 2°44.766 11.4229 3.618151 30.335149 -2.871232
2007-04-16 13:55:19 51°12.377 2°45.08 11.425 3.61525 30.302171 -2.871232
2007-04-16 13:56:19 51°12.48 2°45.401 11.4279 3.610692 30.259 -2.871232
2007-04-16 13:57:20 51°12.585 2°45.73 11.4266 3.608517 30.235033 -2.871232
2007-04-16 13:58:19 51°12.686 2°46.047 11.4433 3.606963 30.219087 -2.871232
2007-04-16 13:59:19 51°12.795 2°46.361 11.4618 3.606134 30.203201 -2.871232
2007-04-16 14:00:19 51°12.903 2°46.675 11.4816 3.607481 30.198641 -2.871232
2007-04-16 14:01:20 51°13.014 2°46.994 11.4756 3.608206 30.194246 -2.871232
2007-04-16 14:02:20 51°13.122 2°47.31 11.482 3.608206 30.193504 -2.871232
2007-04-16 14:03:19 51°13.229 2°47.621 11.5007 3.608102 30.189574 -2.871232
2007-04-16 14:04:19 51°13.336 2°47.936 11.507 3.60893 30.183924 -2.871232
2007-04-16 14:05:20 51°13.446 2°48.255 11.5072 3.609345 30.181101 -2.871232
2007-04-16 14:06:20 51°13.554 2°48.569 11.5201 3.609863 30.180723 -2.871232
2007-04-16 14:07:19 51°13.659 2°48.879 11.5265 3.60748 30.15194 -2.871232
2007-04-16 14:08:19 51°13.765 2°49.195 11.5367 3.604165 30.116739 -2.871232
2007-04-16 14:09:20 51°13.863 2°49.524 11.5218 3.603647 30.097161 -2.871232
2007-04-16 14:10:19 51°13.954 2°49.843 11.5272 3.598882 30.072889 -2.871232
2007-04-16 14:11:19 51°14.04 2°50.172 11.5516 3.599296 30.062714 -2.871232
2007-04-16 14:12:20 51°14.122 2°50.51 11.587 3.599296 30.039869 -2.871232
2007-04-16 14:13:20 51°14.202 2°50.843 11.6083 3.599296 30.016325 -2.871232
2007-04-16 14:14:20 51°14.282 2°51.175 11.6267 3.597017 29.979804 -2.871232
2007-04-16 14:15:19 51°14.35 2°51.507 11.6482 3.59567 29.946085 -2.871232
2007-04-16 14:16:20 51°14.415 2°51.851 11.654 3.594944 29.921084 -2.871232
2007-04-16 14:17:19 51°14.469 2°52.187 11.68 3.585725 29.837366 -2.871232
2007-04-16 14:18:20 51°14.515 2°52.539 11.6955 3.581996 29.787631 -2.871232
2007-04-16 14:19:19 51°14.556 2°52.88 11.6974 3.578889 29.741509 -2.871232
2007-04-16 14:20:20 51°14.589 2°53.237 11.701 3.57112 29.665511 -2.871232
2007-04-16 14:21:19 51°14.604 2°53.586 11.77 3.569359 29.632639 -2.871232
2007-04-16 14:22:19 51°14.599 2°53.946 11.7995 3.558379 29.48331 -2.871232
2007-04-16 14:23:20 51°14.521 2°54.292 11.8411 3.551025 29.39423 -2.871232
2007-04-16 14:24:20 51°14.46 2°54.644 12.0041 3.551024 29.312222 -2.871232
2007-04-16 14:25:20 51°14.382 2°54.977 12.3605 3.544186 29.106322 -2.871232
2007-04-16 14:26:20 51°14.262 2°55.242 12.633 3.491467 28.382886 -2.871232
2007-04-16 14:27:19 51°14.151 2°55.38 12.7573 3.417424 27.493372 -2.871232
2007-04-16 14:28:19 51°14.042 2°55.468 12.9514 3.379632 27.086977 -2.871232
2007-04-16 14:29:20 51°13.928 2°55.555 13.0255 3.347018 26.666856 -2.871232
2007-04-16 14:30:19 51°13.818 2°55.64 12.9799 3.284802 26.065797 -2.871232
2007-04-16 14:31:19 51°13.73 2°55.752 13.3739 3.215972 25.429347 -2.871232
2007-04-16 14:32:20 51°13.673 2°55.871 13.4086 2.92679 22.688764 -2.871232
2007-04-16 14:33:19 51°13.636 2°55.964 13.2614 3.039233 23.736353 -2.871232
2007-04-16 14:34:20 51°13.614 2°56.045 13.3226 3.101208 24.319985 -2.871232
2007-04-16 14:35:20 51°13.605 2°56.09 13.4671 1.959971 12.985538 -2.871232